Latest Coastal Weather Observations for Point Perpendicular

IDN60701

Issued at 5:03 pm EDT Friday 6 March 2015 (issued every 10 minutes, with the page automatically refreshed every 10 minutes)

About coastal observations | Map of coastal stations | Coastal observations for NSW | Marine services | Other Formats
Station Details ID: 068151 Name: POINT PERPENDICULAR AWS Lat: -35.09 Lon: 150.80 Height: 85.0 m
Data from the previous 72 hours. | See also: Recent months at Point Perpendicular
Date/Time
EDT
Temp

°C
Wind Pressure Rain
since 9am
mm
Weather Cloud Vis
km
Sea
Height
m
Swell
Dir
 
Speed
knots
Gust
knots
hPa Trend Height
m
Period
s
Dir
06/05:00pm 22.7 ESE 8 15 1003.2 - 0.0 - - - - - - -
06/04:30pm 23.4 ESE 8 15 1003.1 - 0.0 - - - - - - -
06/04:00pm 24.2 SW 7 13 1003.1 - 0.0 - - - - - - -
06/03:30pm 27.2 WNW 7 12 1003.1 - 0.0 - - - - - - -
06/03:00pm 26.8 W 11 17 1003.3 - 0.0 - - - - - - -
06/02:30pm 26.5 WNW 8 14 1003.6 - 0.0 - - - - - - -
06/02:00pm 25.8 WNW 9 15 1003.7 - 0.0 - - - - - - -
06/01:30pm 25.3 WNW 10 15 1004.0 - 0.0 - - - - - - -
06/01:00pm 24.7 WNW 11 17 1004.2 - 0.0 - - - - - - -
06/12:30pm 23.8 WNW 12 18 1004.4 - 0.0 - - - - - - -
06/12:00pm 23.1 WNW 10 16 1004.9 - 0.0 - - - - - - -
06/11:30am 22.3 WNW 12 17 1005.2 - 0.0 - - - - - - -
06/11:00am 21.4 NW 12 17 1005.5 - 0.0 - - - - - - -
06/10:30am 20.7 WNW 10 15 1005.6 - 0.0 - - - - - - -
06/10:00am 19.6 WNW 10 15 1005.8 - 0.0 - - - - - - -
06/09:30am 18.7 NW 11 16 1005.6 - 0.0 - - - - - - -
06/09:00am 18.0 WNW 9 13 1005.7 - 0.0 - - - - - - -
06/08:30am 17.1 WNW 8 13 1005.9 - 0.0 - - - - - - -
06/08:00am 16.2 WNW 7 9 1005.6 - 0.0 - - - - - - -
06/07:30am 16.0 WNW 9 13 1005.4 - 0.0 - - - - - - -
06/07:00am 15.4 NW 9 13 1005.1 - 0.0 - - - - - - -
06/06:30am 15.0 NW 9 13 1005.0 - 0.0 - - - - - - -
06/06:00am 15.1 NNW 9 14 1005.1 - 0.0 - - - - - - -
06/05:30am 15.4 NNW 10 14 1005.5 - 0.0 - - - - - - -
06/05:00am 15.2 NNW 7 9 1006.4 - 0.0 - - - - - - -
06/04:30am 15.1 NNW 8 11 1006.6 - 0.0 - - - - - - -
06/04:00am 14.8 NNW 7 12 1007.2 - 0.0 - - - - - - -
06/03:30am 14.7 NNW 7 11 1007.8 - 0.0 - - - - - - -
06/03:00am 14.6 NNW 6 8 1008.4 - 0.0 - - - - - - -
06/02:30am 14.5 NNW 5 6 1008.9 - 0.0 - - - - - - -
06/02:00am 14.8 NNW 6 7 1009.7 - 0.0 - - - - - - -
06/01:30am 15.0 NNW 6 7 1010.3 - 0.0 - - - - - - -
06/01:00am 15.2 NNW 5 6 1010.8 - 0.0 - - - - - - -
06/12:30am 15.0 NNW 6 6 1011.1 - 0.0 - - - - - - -
06/12:00am 15.4 NW 5 6 1011.5 - 0.0 - - - - - - -
 
Date/Time
EDT
Temp

°C
Wind Pressure Rain
since 9am
mm
Weather Cloud Vis
km
Sea
Height
m
Swell
Dir
 
Speed
knots
Gust
knots
hPa Trend Height
m
Period
s
Dir
05/11:30pm 15.9 NW 5 7 1012.0 - 0.0 - - - - - - -
05/11:00pm 17.0 WNW 3 6 1011.8 - 0.0 - - - - - - -
05/10:30pm 18.3 SSW 4 7 1011.9 - 0.0 - - - - - - -
05/10:00pm 18.5 S 6 8 1011.9 - 0.0 - - - - - - -
05/09:30pm 18.6 S 9 14 1011.5 - 0.0 - - - - - - -
05/09:00pm 18.5 S 9 14 1011.4 - 0.0 - - - - - - -
05/08:30pm 18.5 SSE 13 21 1010.8 - 0.0 - - - - - - -
05/08:00pm 18.7 S 13 21 1010.4 - 0.0 - - - - - - -
05/07:30pm 18.6 S 13 23 1010.0 - 0.0 - - - - - - -
05/07:00pm 18.8 S 15 21 1009.8 - 0.0 - - - - - - -
05/06:39pm 18.8 S 15 25 1009.6 - 0.0 - - - - - - -
05/06:30pm 18.9 SSE 14 24 1009.7 - 0.0 - - - - - - -
05/06:00pm 19.1 S 15 23 1009.5 - 0.0 - - - - - - -
05/05:30pm 18.9 SSE 15 24 1009.1 - 0.0 - - - - - - -
05/05:08pm 19.6 SSE 15 25 1008.9 - 0.0 - - - - - - -
05/05:00pm 19.4 SSE 14 23 1008.7 - 0.0 - - - - - - -
05/04:33pm 19.8 S 17 28 1008.2 - 0.0 - - - - - - -
05/04:30pm 19.7 S 17 25 1008.0 - 0.0 - - - - - - -
05/04:00pm 20.0 S 16 26 1007.9 - 0.0 - - - - - - -
05/03:30pm 19.7 S 16 29 1008.0 - 0.0 - - - - - - -
05/03:00pm 19.4 S 16 27 1007.5 - 0.0 - - - - - - -
05/02:31pm 20.2 S 18 28 1007.8 - 0.0 - - - - - - -
05/02:30pm 20.0 S 17 26 1007.8 - 0.0 - - - - - - -
05/02:00pm 20.0 S 19 32 1007.1 - 0.0 - - - - - - -
05/01:32pm 19.7 S 20 32 1007.3 - 0.0 - - - - - - -
05/01:30pm 19.7 S 19 28 1007.4 - 0.0 - - - - - - -
05/01:00pm 19.7 S 17 28 1007.8 - 0.0 - - - - - - -
05/12:46pm 19.7 S 15 27 1007.5 - 0.0 - - - - - - -
05/12:30pm 19.6 S 17 25 1007.6 - 0.0 - - - - - - -
05/12:06pm 19.6 S 15 27 1007.6 - 0.0 - - - - - - -
05/12:00pm 19.7 S 15 23 1007.5 - 0.0 - - - - - - -
05/11:30am 19.3 S 16 28 1007.0 - 0.0 - - - - - - -
05/11:00am 19.3 S 15 25 1007.2 - 0.0 - - - - - - -
05/10:30am 21.4 SW 11 18 1006.9 - 0.0 - - - - - - -
05/10:00am 21.3 WSW 11 15 1006.9 - 0.0 - - - - - - -
05/09:30am 20.7 W 10 15 1006.0 - 0.0 - - - - - - -
05/09:00am 21.2 W 10 16 1005.1 - 0.2 - - - - - - -
05/08:30am 21.5 WNW 9 14 1004.5 - 0.2 - - - - - - -
05/08:00am 21.5 W 9 14 1004.5 - 0.2 - - - - - - -
05/07:30am 21.3 W 7 11 1004.2 - 0.2 - - - - - - -
05/07:00am 21.6 W 6 8 1004.0 - 0.2 - - - - - - -
05/06:30am 21.7 WNW 7 8 1003.8 - 0.2 - - - - - - -
05/06:00am 21.9 WNW 7 11 1003.7 - 0.2 - - - - - - -
05/05:30am 22.5 WNW 9 13 1003.3 - 0.2 - - - - - - -
05/05:00am 22.0 NW 12 15 1003.1 - 0.2 - - - - - - -
05/04:30am 20.2 NW 10 14 1003.4 - 0.0 - - - - - - -
05/04:00am 18.0 NW 9 12 1003.5 - 0.0 - - - - - - -
05/03:30am 17.7 NW 7 9 1004.0 - 0.0 - - - - - - -
05/03:00am 17.9 NNW 6 7 1004.2 - 0.0 - - - - - - -
05/02:30am 18.4 NW 4 5 1004.7 - 0.0 - - - - - - -
05/02:00am 19.5 NW 5 6 1005.4 - 0.0 - - - - - - -
05/01:30am 19.9 NNW 5 6 1005.8 - 0.0 - - - - - - -
05/01:00am 20.5 N 5 6 1006.1 - 0.0 - - - - - - -
05/12:30am 21.0 N 7 9 1006.4 - 0.0 - - - - - - -
05/12:00am 21.3 NNW 5 7 1006.8 - 0.0 - - - - - - -
 
Date/Time
EDT
Temp

°C
Wind Pressure Rain
since 9am
mm
Weather Cloud Vis
km
Sea
Height
m
Swell
Dir
 
Speed
knots
Gust
knots
hPa Trend Height
m
Period
s
Dir
04/11:30pm 21.4 N 7 11 1007.2 - 0.0 - - - - - - -
04/11:00pm 21.6 N 11 15 1007.4 - 0.0 - - - - - - -
04/10:30pm 21.8 N 11 15 1007.7 - 0.0 - - - - - - -
04/10:00pm 22.0 N 11 16 1008.1 - 0.0 - - - - - - -
04/09:30pm 22.1 N 12 18 1008.1 - 0.0 - - - - - - -
04/09:00pm 22.1 N 10 15 1008.2 - 0.0 - - - - - - -
04/08:30pm 22.1 NNE 10 16 1008.1 - 0.0 - - - - - - -
04/08:00pm 22.2 NNE 11 15 1008.0 - 0.0 - - - - - - -
04/07:30pm 22.3 NNE 9 14 1008.0 - 0.0 - - - - - - -
04/07:00pm 22.9 NNE 10 14 1008.0 - 0.0 - - - - - - -
04/06:30pm 23.2 NNE 11 15 1008.2 - 0.0 - - - - - - -
04/06:00pm 24.1 NNE 11 16 1008.3 - 0.0 - - - - - - -
04/05:30pm 24.6 NNE 11 16 1008.4 - 0.0 - - - - - - -
04/05:00pm 24.5 NE 9 15 1008.7 - 0.0 - - - - - - -
04/04:30pm 24.0 NE 11 16 1008.7 - 0.0 - - - - - - -
04/04:00pm 24.4 ENE 8 13 1009.1 - 0.0 - - - - - - -
04/03:30pm 23.2 ENE 7 11 1009.6 - 0.0 - - - - - - -
04/03:00pm 23.4 E 5 8 1010.3 - 0.0 - - - - - - -
04/02:30pm 23.9 E 6 9 1010.7 - 0.0 - - - - - - -
04/02:00pm 22.8 ESE 4 6 1010.9 - 0.0 - - - - - - -
04/01:30pm 23.3 ESE 6 9 1011.4 - 0.0 - - - - - - -
04/01:00pm 22.7 E 5 7 1011.9 - 0.0 - - - - - - -
04/12:30pm 22.6 ESE 6 9 1012.3 - 0.0 - - - - - - -
04/12:00pm 22.8 ESE 6 9 1012.8 - 0.0 - - - - - - -
04/11:30am 21.9 SE 5 8 1013.3 - 0.0 - - - - - - -
04/11:00am 21.7 SSE 3 6 1013.5 - 0.0 - - - - - - -
04/10:30am 21.3 SSW 3 6 1013.8 - 0.0 - - - - - - -
04/10:00am 20.9 WSW 3 5 1014.1 - 0.0 - - - - - - -
04/09:30am 20.0 WSW 4 5 1014.1 - 0.0 - - - - - - -
04/09:00am 20.0 SW 3 5 1014.0 - 0.0 - - - - - - -
04/08:30am 20.0 WNW 3 3 1013.7 - 0.0 - - - - - - -
04/08:00am 19.9 CALM 0 0 1013.4 - 0.0 - - - - - - -
04/07:30am 19.4 WSW 2 3 1013.2 - 0.0 - - - - - - -
04/07:00am 19.3 SW 3 4 1012.9 - 0.0 - - - - - - -
04/06:30am 19.2 WSW 2 4 1012.9 - 0.0 - - - - - - -
04/06:00am 19.4 WSW 2 3 1012.8 - 0.0 - - - - - - -
04/05:30am 19.3 SW 3 5 1012.9 - 0.0 - - - - - - -
04/05:00am 19.1 WSW 3 5 1012.9 - 0.0 - - - - - - -
04/04:30am 19.1 WSW 4 5 1013.1 - 0.0 - - - - - - -
04/04:00am 19.2 WSW 4 5 1013.3 - 0.0 - - - - - - -
04/03:30am 19.4 WSW 3 4 1013.4 - 0.0 - - - - - - -
04/03:00am 19.6 SW 4 5 1013.8 - 0.0 - - - - - - -
04/02:30am 19.4 SW 5 6 1014.0 - 0.0 - - - - - - -
04/02:00am 19.5 SW 5 8 1014.2 - 0.0 - - - - - - -
04/01:30am 19.4 SW 6 8 1014.5 - 0.0 - - - - - - -
04/01:00am 19.4 WSW 5 7 1014.7 - 0.0 - - - - - - -
04/12:30am 19.5 SW 5 7 1014.8 - 0.0 - - - - - - -
04/12:00am 19.6 SW 5 6 1015.0 - 0.0 - - - - - - -
 
Date/Time
EDT
Temp

°C
Wind Pressure Rain
since 9am
mm
Weather Cloud Vis
km
Sea
Height
m
Swell
Dir
 
Speed
knots
Gust
knots
hPa Trend Height
m
Period
s
Dir
03/11:30pm 19.8 SW 4 7 1015.2 - 0.0 - - - - - - -
03/11:00pm 20.1 SW 4 6 1015.3 - 0.0 - - - - - - -
03/10:30pm 20.3 SW 4 6 1015.3 - 0.0 - - - - - - -
03/10:00pm 20.6 CALM 0 3 1015.5 - 0.0 - - - - - - -
03/09:30pm 20.6 SW 2 4 1015.4 - 0.0 - - - - - - -
03/09:00pm 20.5 SW 3 5 1015.3 - 0.0 - - - - - - -
03/08:30pm 20.5 SW 4 6 1014.8 - 0.0 - - - - - - -
03/08:00pm 20.5 SW 6 8 1014.9 - 0.0 - - - - - - -
03/07:30pm 20.8 SW 4 6 1014.5 - 0.0 - - - - - - -
03/07:00pm 20.9 SSW 5 7 1014.3 - 0.0 - - - - - - -
03/06:30pm 20.8 SSW 5 6 1014.2 - 0.0 - - - - - - -
03/06:00pm 21.0 S 5 7 1014.1 - 0.0 - - - - - - -
03/05:30pm 21.3 S 6 9 1014.0 - 0.0 - - - - - - -

Other Formats:

Comma delimited format used in spreadsheet applications
http://www.bom.gov.au/fwo/IDN60701/IDN60701.95940.axf

JavaScript Object Notation format (JSON) in row-major order
http://www.bom.gov.au/fwo/IDN60701/IDN60701.95940.json